createdAt,value
2018-12-30T00:00:22.417Z,420.33
2018-12-30T00:01:22.453Z,421.93
2018-12-30T00:02:22.388Z,417.37
2018-12-30T00:03:22.410Z,422.30
2018-12-30T00:04:22.372Z,419.48
2018-12-30T00:05:22.365Z,418.69
2018-12-30T00:06:22.359Z,417.73
2018-12-30T00:07:22.340Z,415.70
2018-12-30T00:08:22.349Z,423.64
2018-12-30T00:09:22.325Z,421.84
2018-12-30T00:10:22.331Z,422.69
2018-12-30T00:11:22.299Z,420.64
2018-12-30T00:12:22.277Z,430.98
2018-12-30T00:13:22.287Z,421.97
2018-12-30T00:14:22.264Z,422.62
2018-12-30T00:15:22.266Z,419.90
2018-12-30T00:16:22.259Z,419.57
2018-12-30T00:17:22.237Z,419.05
2018-12-30T00:18:22.253Z,422.94
2018-12-30T00:19:22.215Z,419.67
2018-12-30T00:20:22.217Z,422.03
2018-12-30T00:21:22.189Z,421.56
2018-12-30T00:22:22.188Z,421.76
2018-12-30T00:23:22.186Z,419.24
2018-12-30T00:24:22.150Z,421.41
2018-12-30T00:25:22.149Z,424.46
2018-12-30T00:26:22.128Z,429.26
2018-12-30T00:27:22.154Z,420.44
2018-12-30T00:28:22.135Z,418.36
2018-12-30T00:29:22.117Z,421.61
2018-12-30T00:30:22.092Z,421.51
2018-12-30T00:31:22.073Z,420.66
2018-12-30T00:32:22.063Z,416.13
2018-12-30T00:33:22.083Z,417.04
2018-12-30T00:34:22.045Z,426.98
2018-12-30T00:35:22.030Z,419.13
2018-12-30T00:36:22.022Z,423.82
2018-12-30T00:37:22.006Z,422.72
2018-12-30T00:38:22.030Z,420.35
2018-12-30T00:39:21.995Z,418.70
2018-12-30T00:40:21.985Z,421.20
2018-12-30T00:41:21.972Z,419.19
2018-12-30T00:42:21.974Z,419.58
2018-12-30T00:43:21.939Z,417.32
2018-12-30T00:44:21.954Z,420.36
2018-12-30T00:45:21.922Z,417.49
2018-12-30T00:46:21.916Z,421.74
2018-12-30T00:47:21.905Z,420.32
2018-12-30T00:48:21.910Z,421.88
2018-12-30T00:49:21.900Z,421.94
2018-12-30T00:50:21.859Z,420.10
2018-12-30T00:51:21.864Z,426.15
2018-12-30T00:52:21.853Z,420.50
2018-12-30T00:53:21.845Z,412.40
2018-12-30T00:54:21.853Z,420.33
2018-12-30T00:55:21.816Z,420.57
2018-12-30T00:56:21.807Z,421.45
2018-12-30T00:57:21.788Z,425.80
2018-12-30T00:58:21.780Z,420.59
2018-12-30T00:59:21.805Z,426.66
2018-12-30T01:00:21.765Z,420.67
2018-12-30T01:01:21.756Z,423.05
2018-12-30T01:02:21.741Z,420.31
2018-12-30T01:03:21.753Z,419.48
2018-12-30T01:04:21.716Z,421.13
2018-12-30T01:05:21.743Z,427.16
2018-12-30T01:06:21.706Z,417.52
2018-12-30T01:07:21.690Z,417.64
2018-12-30T01:08:21.670Z,422.81
2018-12-30T01:09:21.692Z,426.85
2018-12-30T01:10:21.651Z,417.08
2018-12-30T01:11:21.648Z,421.37
2018-12-30T01:12:21.630Z,421.37
2018-12-30T01:13:21.624Z,419.84
2018-12-30T01:14:21.611Z,422.05
2018-12-30T01:15:21.619Z,422.15
2018-12-30T01:16:21.578Z,420.62
2018-12-30T01:17:21.576Z,420.92
2018-12-30T01:18:21.560Z,424.68
2018-12-30T01:19:21.564Z,424.81
2018-12-30T01:20:21.559Z,425.23
2018-12-30T01:21:25.113Z,419.84
2018-12-30T01:22:21.513Z,421.27
2018-12-30T01:23:21.520Z,421.20
2018-12-30T01:24:21.503Z,423.09
2018-12-30T01:25:21.522Z,416.28
2018-12-30T01:26:21.479Z,426.20
2018-12-30T01:27:21.461Z,424.93
2018-12-30T01:28:21.454Z,424.37
2018-12-30T01:29:21.533Z,423.84
2018-12-30T01:30:21.436Z,426.93
2018-12-30T01:31:21.449Z,423.12
2018-12-30T01:32:21.425Z,422.66
2018-12-30T01:33:21.412Z,425.21
2018-12-30T01:34:21.396Z,423.13
2018-12-30T01:35:21.381Z,422.85
2018-12-30T01:36:21.396Z,424.32
2018-12-30T01:37:21.370Z,426.07
2018-12-30T01:38:21.352Z,422.91
2018-12-30T01:39:21.335Z,418.97
2018-12-30T01:40:21.341Z,423.63
2018-12-30T01:41:21.309Z,422.01
2018-12-30T01:42:21.324Z,422.62
2018-12-30T01:43:21.318Z,422.97
2018-12-30T01:44:21.288Z,427.64
2018-12-30T01:45:21.311Z,422.43
2018-12-30T01:46:21.264Z,422.19
2018-12-30T01:47:21.239Z,424.73
2018-12-30T01:48:21.246Z,422.72
2018-12-30T01:49:21.223Z,423.63
2018-12-30T01:50:21.208Z,427.95
2018-12-30T01:51:21.224Z,426.49
2018-12-30T01:52:21.195Z,423.22
2018-12-30T01:53:21.171Z,428.02
2018-12-30T01:54:21.164Z,425.66
2018-12-30T01:55:21.160Z,419.59
2018-12-30T01:56:21.167Z,424.19
2018-12-30T01:57:21.139Z,421.52
2018-12-30T01:58:21.171Z,424.97
2018-12-30T01:59:21.111Z,424.83
2018-12-30T02:00:21.110Z,427.99
2018-12-30T02:01:21.122Z,431.04
2018-12-30T02:02:22.037Z,427.55
2018-12-30T02:03:21.112Z,428.89
2018-12-30T02:04:21.068Z,420.67
2018-12-30T02:05:21.075Z,425.21
2018-12-30T02:06:21.042Z,424.50
2018-12-30T02:07:21.033Z,422.47
2018-12-30T02:08:21.019Z,428.25
2018-12-30T02:09:21.368Z,423.57
2018-12-30T02:10:20.999Z,428.90
2018-12-30T02:11:20.972Z,424.99
2018-12-30T02:12:20.983Z,420.59
2018-12-30T02:13:20.955Z,426.13
2018-12-30T02:14:20.963Z,426.97
2018-12-30T02:15:20.947Z,425.92
2018-12-30T02:16:20.929Z,426.86
2018-12-30T02:17:20.917Z,429.77
2018-12-30T02:18:20.919Z,431.09
2018-12-30T02:19:20.921Z,423.14
2018-12-30T02:20:20.881Z,425.32
2018-12-30T02:21:20.865Z,422.71
2018-12-30T02:22:20.865Z,424.86
2018-12-30T02:23:20.857Z,432.85
2018-12-30T02:24:20.850Z,429.04
2018-12-30T02:25:20.841Z,423.74
2018-12-30T02:26:20.843Z,426.65
2018-12-30T02:27:20.812Z,429.73
2018-12-30T02:28:20.802Z,428.48
2018-12-30T02:29:20.841Z,427.83
2018-12-30T02:30:20.783Z,426.16
2018-12-30T02:31:20.765Z,428.42
2018-12-30T02:32:20.748Z,425.48
2018-12-30T02:33:20.772Z,425.82
2018-12-30T02:34:21.071Z,426.71
2018-12-30T02:35:20.740Z,428.40
2018-12-30T02:36:20.713Z,432.92
2018-12-30T02:37:20.720Z,432.55
2018-12-30T02:38:20.699Z,428.02
2018-12-30T02:39:20.724Z,427.47
2018-12-30T02:40:20.687Z,423.55
2018-12-30T02:41:20.661Z,428.11
2018-12-30T02:42:20.646Z,424.66
2018-12-30T02:43:20.633Z,423.07
2018-12-30T02:44:20.635Z,428.03
2018-12-30T02:45:20.599Z,426.12
2018-12-30T02:46:20.667Z,431.13
2018-12-30T02:47:20.592Z,426.89
2018-12-30T02:48:20.587Z,430.00
2018-12-30T02:49:20.574Z,427.37
2018-12-30T02:50:20.580Z,426.61
2018-12-30T02:51:20.545Z,420.01
2018-12-30T02:52:20.533Z,425.33
2018-12-30T02:53:20.536Z,421.30
2018-12-30T02:54:20.514Z,423.98
2018-12-30T02:55:20.523Z,430.76
2018-12-30T02:56:20.495Z,427.67
2018-12-30T02:57:20.470Z,422.27
2018-12-30T02:58:20.473Z,428.80
2018-12-30T02:59:20.458Z,430.09
2018-12-30T03:00:20.465Z,424.76
2018-12-30T03:01:20.444Z,425.78
2018-12-30T03:02:20.428Z,427.52
2018-12-30T03:03:20.415Z,428.96
2018-12-30T03:04:20.404Z,425.42
2018-12-30T03:05:20.410Z,420.72
2018-12-30T03:06:20.390Z,425.75
2018-12-30T03:07:20.375Z,425.46
2018-12-30T03:08:20.360Z,425.26
2018-12-30T03:09:20.351Z,424.77
2018-12-30T03:10:20.367Z,428.98
2018-12-30T03:11:20.339Z,429.02
2018-12-30T03:12:20.360Z,430.67
2018-12-30T03:13:20.310Z,428.96
2018-12-30T03:14:20.311Z,425.02
2018-12-30T03:15:20.273Z,422.51
2018-12-30T03:16:20.291Z,430.33
2018-12-30T03:17:20.267Z,428.50
2018-12-30T03:18:20.243Z,425.40
2018-12-30T03:19:20.246Z,430.27
2018-12-30T03:20:20.228Z,427.12
2018-12-30T03:21:20.264Z,424.80
2018-12-30T03:22:20.210Z,427.89
2018-12-30T03:23:20.191Z,426.48
2018-12-30T03:24:20.175Z,425.54
2018-12-30T03:25:20.163Z,426.30
2018-12-30T03:26:20.153Z,436.82
2018-12-30T03:27:20.176Z,434.36
2018-12-30T03:28:20.143Z,427.92
2018-12-30T03:29:20.123Z,431.58
2018-12-30T03:30:20.164Z,426.56
2018-12-30T03:31:20.119Z,429.23
2018-12-30T03:32:20.136Z,429.99
2018-12-30T03:33:20.099Z,427.30
2018-12-30T03:34:20.081Z,437.66
2018-12-30T03:35:20.070Z,427.71
2018-12-30T03:36:20.055Z,427.35
2018-12-30T03:37:20.030Z,432.07
2018-12-30T03:38:20.077Z,429.36
2018-12-30T03:39:20.122Z,429.21
2018-12-30T03:40:20.012Z,432.79
2018-12-30T03:41:19.994Z,430.88
2018-12-30T03:42:20.387Z,429.61
2018-12-30T03:43:19.987Z,430.72
2018-12-30T03:44:19.953Z,422.43
2018-12-30T03:45:19.962Z,432.27
2018-12-30T03:46:19.943Z,427.96
2018-12-30T03:47:19.921Z,430.51
2018-12-30T03:48:19.930Z,435.53
2018-12-30T03:49:19.896Z,431.15
2018-12-30T03:50:19.886Z,426.67
2018-12-30T03:51:19.887Z,433.78
2018-12-30T03:52:19.885Z,432.45
2018-12-30T03:53:19.893Z,431.51
2018-12-30T03:54:19.857Z,430.87
2018-12-30T03:55:19.838Z,432.92
2018-12-30T03:56:19.825Z,431.04
2018-12-30T03:57:19.807Z,434.57
2018-12-30T03:58:19.798Z,441.49
2018-12-30T03:59:19.822Z,427.95
2018-12-30T04:00:19.785Z,431.82
2018-12-30T04:01:19.771Z,434.64
2018-12-30T04:02:19.759Z,426.17
2018-12-30T04:03:19.759Z,426.89
2018-12-30T04:04:19.779Z,427.62
2018-12-30T04:05:19.743Z,437.59
2018-12-30T04:06:19.719Z,436.10
2018-12-30T04:07:19.720Z,440.01
2018-12-30T04:08:19.689Z,434.93
2018-12-30T04:09:19.678Z,437.57
2018-12-30T04:10:19.706Z,437.10
2018-12-30T04:11:19.672Z,433.34
2018-12-30T04:12:19.656Z,439.00
2018-12-30T04:13:19.665Z,432.64
2018-12-30T04:14:19.636Z,426.82
2018-12-30T04:15:19.631Z,435.74
2018-12-30T04:16:19.615Z,438.12
2018-12-30T04:17:19.607Z,432.90
2018-12-30T04:18:19.589Z,427.36
2018-12-30T04:19:19.569Z,426.58
2018-12-30T04:20:19.580Z,424.91
2018-12-30T04:21:19.544Z,428.96
2018-12-30T04:22:19.542Z,430.14
2018-12-30T04:23:19.529Z,433.32
2018-12-30T04:24:19.529Z,423.18
2018-12-30T04:25:19.524Z,432.68
2018-12-30T04:26:19.502Z,432.94
2018-12-30T04:27:19.483Z,435.20
2018-12-30T04:28:19.472Z,432.00
2018-12-30T04:29:19.456Z,430.44
2018-12-30T04:30:19.489Z,431.09
2018-12-30T04:31:19.444Z,439.37
2018-12-30T04:32:19.440Z,430.99
2018-12-30T04:33:19.418Z,430.33
2018-12-30T04:34:19.409Z,437.45
2018-12-30T04:35:19.432Z,435.56
2018-12-30T04:36:19.401Z,427.32
2018-12-30T04:37:19.373Z,431.87
2018-12-30T04:38:19.379Z,428.50
2018-12-30T04:39:19.348Z,432.85
2018-12-30T04:40:19.328Z,432.54
2018-12-30T04:41:19.341Z,434.66
2018-12-30T04:42:19.314Z,432.38
2018-12-30T04:43:19.699Z,429.83
2018-12-30T04:44:19.295Z,427.75
2018-12-30T04:45:19.287Z,435.25
2018-12-30T04:46:19.284Z,427.30
2018-12-30T04:47:19.259Z,438.02
2018-12-30T04:48:19.268Z,431.69
2018-12-30T04:49:19.253Z,433.94
2018-12-30T04:50:19.248Z,435.46
2018-12-30T04:51:19.228Z,429.88
2018-12-30T04:52:25.625Z,431.08
2018-12-30T04:53:20.217Z,435.59
2018-12-30T04:54:19.185Z,434.26
2018-12-30T04:55:19.185Z,434.41
2018-12-30T04:56:19.167Z,435.56
2018-12-30T04:57:19.163Z,425.12
2018-12-30T04:58:19.171Z,436.45
2018-12-30T04:59:19.125Z,441.77
2018-12-30T05:00:19.120Z,437.98
2018-12-30T05:01:19.119Z,425.35
2018-12-30T05:02:19.093Z,433.45
2018-12-30T05:03:19.120Z,432.52
2018-12-30T05:04:19.074Z,429.37
2018-12-30T05:05:19.063Z,433.54
2018-12-30T05:06:19.055Z,428.54
2018-12-30T05:07:19.057Z,431.17
2018-12-30T05:08:19.035Z,436.82
2018-12-30T05:09:19.044Z,430.82
2018-12-30T05:10:19.022Z,434.60
2018-12-30T05:11:18.995Z,427.29
2018-12-30T05:12:18.986Z,432.62
2018-12-30T05:13:18.981Z,432.77
2018-12-30T05:14:18.988Z,428.96
2018-12-30T05:15:18.956Z,428.03
2018-12-30T05:16:18.950Z,426.57
2018-12-30T05:17:18.941Z,429.69
2018-12-30T05:18:18.929Z,435.62
2018-12-30T05:19:18.924Z,432.90
2018-12-30T05:20:18.895Z,425.92
2018-12-30T05:21:18.907Z,426.95
2018-12-30T05:22:18.877Z,428.22
2018-12-30T05:23:18.868Z,424.71
2018-12-30T05:24:18.882Z,434.93
2018-12-30T05:25:18.840Z,434.23
2018-12-30T05:26:18.830Z,428.31
2018-12-30T05:27:18.830Z,431.71
2018-12-30T05:28:18.819Z,430.05
2018-12-30T05:29:18.799Z,432.68
2018-12-30T05:30:18.818Z,433.59
2018-12-30T05:31:18.780Z,429.31
2018-12-30T05:32:18.769Z,431.33
2018-12-30T05:33:18.758Z,427.12
2018-12-30T05:34:18.744Z,432.30
2018-12-30T05:35:19.515Z,432.62
2018-12-30T05:36:18.728Z,431.70
2018-12-30T05:37:18.711Z,426.01
2018-12-30T05:38:18.695Z,432.24
2018-12-30T05:39:18.700Z,426.28
2018-12-30T05:40:18.700Z,425.35
2018-12-30T05:41:18.698Z,427.57
2018-12-30T05:42:18.669Z,429.11
2018-12-30T05:43:18.648Z,429.58
2018-12-30T05:44:18.643Z,433.46
2018-12-30T05:45:18.624Z,433.22
2018-12-30T05:46:18.628Z,433.37
2018-12-30T05:47:18.607Z,434.82
2018-12-30T05:48:18.595Z,428.58
2018-12-30T05:49:18.583Z,430.25
2018-12-30T05:50:18.569Z,423.69
2018-12-30T05:51:18.593Z,429.92
2018-12-30T05:52:18.538Z,427.31
2018-12-30T05:53:18.544Z,434.77
2018-12-30T05:54:18.542Z,431.20
2018-12-30T05:55:18.511Z,431.78
2018-12-30T05:56:18.513Z,432.36
2018-12-30T05:57:18.488Z,430.89
2018-12-30T05:58:18.474Z,428.69
2018-12-30T05:59:18.474Z,431.09
2018-12-30T06:00:18.463Z,436.32
2018-12-30T06:01:18.468Z,430.26
2018-12-30T06:02:18.435Z,434.65
2018-12-30T06:03:18.442Z,435.98
2018-12-30T06:04:18.407Z,431.97
2018-12-30T06:05:18.404Z,431.38
2018-12-30T06:06:18.390Z,429.13
2018-12-30T06:07:18.478Z,434.58
2018-12-30T06:08:18.398Z,434.16
2018-12-30T06:09:18.350Z,432.93
2018-12-30T06:10:18.348Z,434.77
2018-12-30T06:11:18.347Z,437.86
2018-12-30T06:12:18.334Z,437.47
2018-12-30T06:13:18.334Z,433.34
2018-12-30T06:14:18.304Z,434.80
2018-12-30T06:15:18.281Z,432.96
2018-12-30T06:16:18.289Z,443.93
2018-12-30T06:17:18.259Z,428.29
2018-12-30T06:18:18.274Z,435.19
2018-12-30T06:19:18.289Z,438.70
2018-12-30T06:20:18.235Z,435.81
2018-12-30T06:21:18.226Z,430.84
2018-12-30T06:22:18.216Z,441.22
2018-12-30T06:23:18.198Z,431.09
2018-12-30T06:24:18.210Z,437.15
2018-12-30T06:25:18.179Z,431.13
2018-12-30T06:26:18.176Z,438.43
2018-12-30T06:27:18.150Z,435.98
2018-12-30T06:28:18.149Z,435.25
2018-12-30T06:29:18.142Z,438.00
2018-12-30T06:30:18.149Z,433.31
2018-12-30T06:31:18.139Z,440.73
2018-12-30T06:32:18.115Z,439.23
2018-12-30T06:33:18.098Z,438.25
2018-12-30T06:34:18.095Z,437.39
2018-12-30T06:35:18.098Z,437.81
2018-12-30T06:36:18.081Z,448.53
2018-12-30T06:37:18.047Z,434.36
2018-12-30T06:38:18.033Z,441.41
2018-12-30T06:39:18.022Z,436.64
2018-12-30T06:40:18.017Z,433.90
2018-12-30T06:41:18.040Z,435.18
2018-12-30T06:42:18.009Z,443.48
2018-12-30T06:43:17.986Z,442.72
2018-12-30T06:44:17.974Z,436.14
2018-12-30T06:45:17.967Z,440.42
2018-12-30T06:46:17.979Z,432.42
2018-12-30T06:47:17.936Z,430.76
2018-12-30T06:48:17.929Z,432.60
2018-12-30T06:49:17.918Z,435.07
2018-12-30T06:50:17.905Z,435.78
2018-12-30T06:51:17.905Z,435.44
2018-12-30T06:52:17.918Z,437.30
2018-12-30T06:53:17.879Z,439.66
2018-12-30T06:54:17.876Z,436.76
2018-12-30T06:55:17.845Z,441.20
2018-12-30T06:56:17.840Z,440.52
2018-12-30T06:57:17.848Z,440.17
2018-12-30T06:58:17.821Z,442.56
2018-12-30T06:59:17.805Z,441.21
2018-12-30T07:00:17.796Z,435.51
2018-12-30T07:01:17.784Z,436.07
2018-12-30T07:02:17.797Z,439.39
2018-12-30T07:03:17.785Z,442.23
2018-12-30T07:04:17.761Z,438.92
2018-12-30T07:05:17.748Z,437.77
2018-12-30T07:06:17.733Z,441.41
2018-12-30T07:07:17.711Z,437.74
2018-12-30T07:08:17.718Z,439.34
2018-12-30T07:09:17.687Z,432.24
2018-12-30T07:10:17.682Z,431.79
2018-12-30T07:11:17.681Z,442.38
2018-12-30T07:12:17.697Z,436.88
2018-12-30T07:13:17.657Z,433.40
2018-12-30T07:14:17.644Z,449.47
2018-12-30T07:15:17.637Z,438.67
2018-12-30T07:16:17.628Z,437.47
2018-12-30T07:17:17.645Z,445.28
2018-12-30T07:18:17.656Z,442.77
2018-12-30T07:19:17.583Z,444.71
2018-12-30T07:20:17.573Z,433.14
2018-12-30T07:21:17.559Z,442.47
2018-12-30T07:22:17.570Z,442.50
2018-12-30T07:23:17.546Z,443.01
2018-12-30T07:24:17.536Z,437.44
2018-12-30T07:25:17.529Z,442.27
2018-12-30T07:26:17.522Z,436.06
2018-12-30T07:27:18.441Z,439.79
2018-12-30T07:28:17.481Z,440.46
2018-12-30T07:29:17.485Z,436.93
2018-12-30T07:30:17.478Z,441.91
2018-12-30T07:31:17.454Z,437.64
2018-12-30T07:32:17.463Z,436.91
2018-12-30T07:33:17.462Z,440.72
2018-12-30T07:34:17.423Z,448.38
2018-12-30T07:35:17.424Z,447.22
2018-12-30T07:36:17.413Z,445.89
2018-12-30T07:37:17.399Z,444.23
2018-12-30T07:38:17.407Z,442.36
2018-12-30T07:39:17.372Z,438.82
2018-12-30T07:40:17.355Z,437.57
2018-12-30T07:41:17.354Z,440.92
2018-12-30T07:42:17.359Z,439.19
2018-12-30T07:43:17.329Z,436.80
2018-12-30T07:44:17.343Z,438.35
2018-12-30T07:45:17.406Z,430.04
2018-12-30T07:46:17.297Z,436.07
2018-12-30T07:47:17.587Z,436.15
2018-12-30T07:48:17.283Z,445.83
2018-12-30T07:49:17.280Z,439.73
2018-12-30T07:50:17.260Z,436.92
2018-12-30T07:51:17.239Z,440.34
2018-12-30T07:52:17.243Z,443.05
2018-12-30T07:53:17.217Z,437.19
2018-12-30T07:54:17.227Z,437.57
2018-12-30T07:55:17.210Z,442.00
2018-12-30T07:56:17.191Z,451.23
2018-12-30T07:57:17.185Z,439.21
2018-12-30T07:58:17.205Z,436.09
2018-12-30T07:59:17.151Z,443.30
2018-12-30T08:00:17.146Z,436.18
2018-12-30T08:01:17.143Z,439.63
2018-12-30T08:02:17.125Z,436.91
2018-12-30T08:03:17.103Z,433.72
2018-12-30T08:04:17.106Z,441.35
2018-12-30T08:05:17.086Z,446.08
2018-12-30T08:06:17.076Z,445.14
2018-12-30T08:07:17.081Z,438.42
2018-12-30T08:08:17.060Z,437.98
2018-12-30T08:09:17.081Z,436.86
2018-12-30T08:10:17.040Z,441.45
2018-12-30T08:11:17.020Z,442.52
2018-12-30T08:12:17.006Z,439.86
2018-12-30T08:13:16.993Z,445.01
2018-12-30T08:14:17.000Z,438.59
2018-12-30T08:15:17.000Z,437.35
2018-12-30T08:16:16.969Z,433.96
2018-12-30T08:17:16.951Z,440.66
2018-12-30T08:18:16.941Z,444.79
2018-12-30T08:19:16.935Z,437.99
2018-12-30T08:20:16.947Z,448.08
2018-12-30T08:21:16.921Z,441.48
2018-12-30T08:22:16.914Z,438.98
2018-12-30T08:23:21.393Z,440.92
2018-12-30T08:24:17.883Z,433.23
2018-12-30T08:25:16.891Z,438.57
2018-12-30T08:26:16.858Z,433.85
2018-12-30T08:27:16.891Z,437.74
2018-12-30T08:28:24.806Z,444.77
2018-12-30T08:29:17.834Z,434.15
2018-12-30T08:30:16.851Z,437.05
2018-12-30T08:31:16.802Z,439.24
2018-12-30T08:32:16.796Z,441.48
2018-12-30T08:33:16.790Z,436.73
2018-12-30T08:34:16.776Z,440.87
2018-12-30T08:35:16.760Z,440.90
2018-12-30T08:36:16.769Z,440.41
2018-12-30T08:37:16.739Z,441.96
2018-12-30T08:38:16.723Z,446.30
2018-12-30T08:39:16.734Z,439.11
2018-12-30T08:40:16.733Z,436.93
2018-12-30T08:41:16.699Z,438.97
2018-12-30T08:42:16.686Z,438.85
2018-12-30T08:43:17.350Z,437.24
2018-12-30T08:44:16.669Z,440.16
2018-12-30T08:45:16.685Z,438.48
2018-12-30T08:46:16.652Z,437.92
2018-12-30T08:47:16.626Z,437.46
2018-12-30T08:48:16.619Z,442.51
2018-12-30T08:49:16.616Z,439.88
2018-12-30T08:50:16.642Z,443.61
2018-12-30T08:51:16.575Z,441.30
2018-12-30T08:52:16.570Z,441.64
2018-12-30T08:53:16.561Z,437.25
2018-12-30T08:54:16.547Z,441.37
2018-12-30T08:55:16.555Z,442.47
2018-12-30T08:56:16.552Z,443.78
2018-12-30T08:57:16.530Z,438.78
2018-12-30T08:58:16.530Z,435.48
2018-12-30T08:59:16.502Z,435.76
2018-12-30T09:00:16.482Z,450.34
2018-12-30T09:01:16.495Z,440.33
2018-12-30T09:02:16.462Z,442.92
2018-12-30T09:03:16.464Z,443.29
2018-12-30T09:04:16.474Z,441.41
2018-12-30T09:05:16.439Z,443.56
2018-12-30T09:06:16.419Z,442.59
2018-12-30T09:07:16.426Z,440.28
2018-12-30T09:08:16.403Z,439.39
2018-12-30T09:09:16.403Z,440.35
2018-12-30T09:10:16.406Z,441.97
2018-12-30T09:11:16.359Z,448.85
2018-12-30T09:12:16.358Z,449.23
2018-12-30T09:13:16.362Z,438.93
2018-12-30T09:14:16.334Z,440.11
2018-12-30T09:15:16.351Z,437.64
2018-12-30T09:16:16.354Z,445.40
2018-12-30T09:17:16.313Z,439.53
2018-12-30T09:18:16.308Z,443.33
2018-12-30T09:19:16.289Z,437.45
2018-12-30T09:20:16.283Z,440.21
2018-12-30T09:21:16.271Z,445.31
2018-12-30T09:22:16.282Z,445.96
2018-12-30T09:23:16.240Z,445.03
2018-12-30T09:24:16.231Z,445.57
2018-12-30T09:25:16.213Z,441.95
2018-12-30T09:26:16.204Z,441.94
2018-12-30T09:27:16.224Z,446.58
2018-12-30T09:28:16.197Z,450.38
2018-12-30T09:29:16.179Z,442.04
2018-12-30T09:30:16.178Z,439.08
2018-12-30T09:31:16.157Z,442.14
2018-12-30T09:32:16.177Z,442.53
2018-12-30T09:33:16.138Z,444.74
2018-12-30T09:34:16.117Z,462.48
2018-12-30T09:35:16.131Z,443.68
2018-12-30T09:36:16.110Z,445.60
2018-12-30T09:37:16.117Z,443.16
2018-12-30T09:38:16.077Z,443.08
2018-12-30T09:39:16.071Z,443.61
2018-12-30T09:40:16.102Z,441.37
2018-12-30T09:41:16.045Z,441.93
2018-12-30T09:42:16.042Z,440.72
2018-12-30T09:43:16.032Z,445.97
2018-12-30T09:44:16.010Z,448.31
2018-12-30T09:45:16.001Z,441.67
2018-12-30T09:46:15.991Z,443.27
2018-12-30T09:47:15.981Z,446.25
2018-12-30T09:48:15.988Z,443.17
2018-12-30T09:49:15.991Z,441.87
2018-12-30T09:50:15.970Z,442.82
2018-12-30T09:51:15.933Z,440.76
2018-12-30T09:52:15.926Z,443.66
2018-12-30T09:53:15.921Z,439.11
2018-12-30T09:54:15.908Z,441.54
2018-12-30T09:55:15.903Z,457.15
2018-12-30T09:56:15.872Z,446.58
2018-12-30T09:57:15.864Z,442.55
2018-12-30T09:58:15.882Z,440.72
2018-12-30T09:59:15.859Z,445.25
2018-12-30T10:00:15.865Z,440.89
2018-12-30T10:01:15.852Z,441.70
2018-12-30T10:02:15.824Z,440.97
2018-12-30T10:03:15.814Z,444.21
2018-12-30T10:04:15.820Z,441.74
2018-12-30T10:05:15.802Z,447.78
2018-12-30T10:06:15.772Z,436.92
2018-12-30T10:07:15.765Z,442.53
2018-12-30T10:08:15.764Z,441.81
2018-12-30T10:09:15.743Z,439.05
2018-12-30T10:10:15.747Z,442.69
2018-12-30T10:11:15.736Z,441.74
2018-12-30T10:12:15.712Z,440.53
2018-12-30T10:13:15.703Z,439.34
2018-12-30T10:14:15.697Z,448.32
2018-12-30T10:15:15.670Z,441.97
2018-12-30T10:16:15.670Z,445.18
2018-12-30T10:17:15.648Z,445.37
2018-12-30T10:18:15.632Z,449.29
2018-12-30T10:19:15.636Z,439.38
2018-12-30T10:20:15.615Z,448.83
2018-12-30T10:21:15.630Z,436.07
2018-12-30T10:22:15.599Z,445.39
2018-12-30T10:23:15.595Z,445.46
2018-12-30T10:24:15.566Z,444.83
2018-12-30T10:25:15.568Z,444.09
2018-12-30T10:26:15.582Z,442.45
2018-12-30T10:27:15.535Z,442.15
2018-12-30T10:28:15.540Z,441.31
2018-12-30T10:29:15.518Z,442.78
2018-12-30T10:30:15.500Z,449.08
2018-12-30T10:31:15.518Z,446.61
2018-12-30T10:32:15.490Z,441.43
2018-12-30T10:33:15.482Z,480.36
2018-12-30T10:34:15.478Z,444.32
2018-12-30T10:35:15.458Z,442.15
2018-12-30T10:36:15.455Z,446.07
2018-12-30T10:37:15.430Z,445.76
2018-12-30T10:38:15.453Z,438.63
2018-12-30T10:39:15.414Z,449.73
2018-12-30T10:40:15.401Z,440.68
2018-12-30T10:41:15.403Z,446.69
2018-12-30T10:42:15.376Z,441.78
2018-12-30T10:43:15.370Z,449.10
2018-12-30T10:44:15.357Z,451.86
2018-12-30T10:45:15.360Z,447.68
2018-12-30T10:46:15.386Z,449.10
2018-12-30T10:47:15.311Z,438.31
2018-12-30T10:48:15.307Z,444.62
2018-12-30T10:49:15.290Z,444.58
2018-12-30T10:50:15.282Z,441.61
2018-12-30T10:51:15.277Z,443.55
2018-12-30T10:52:15.284Z,438.14
2018-12-30T10:53:15.320Z,439.88
2018-12-30T10:54:15.249Z,438.69
2018-12-30T10:55:15.223Z,452.23
2018-12-30T10:56:15.220Z,445.15
2018-12-30T10:57:15.229Z,443.78
2018-12-30T10:58:15.210Z,446.63
2018-12-30T10:59:15.180Z,437.31
2018-12-30T11:00:15.174Z,442.78
2018-12-30T11:01:15.169Z,450.27
2018-12-30T11:02:15.207Z,444.58
2018-12-30T11:03:15.227Z,447.45
2018-12-30T11:04:15.137Z,447.27
2018-12-30T11:05:15.122Z,438.53
2018-12-30T11:06:15.119Z,440.61
2018-12-30T11:07:15.093Z,447.32
2018-12-30T11:08:15.099Z,446.82
2018-12-30T11:09:15.069Z,445.96
2018-12-30T11:10:15.065Z,440.98
2018-12-30T11:11:15.060Z,441.60
2018-12-30T11:12:15.067Z,448.07
2018-12-30T11:13:15.034Z,447.24
2018-12-30T11:14:15.016Z,442.01
2018-12-30T11:15:15.019Z,450.25
2018-12-30T11:16:15.000Z,439.68
2018-12-30T11:17:15.011Z,449.87
2018-12-30T11:18:14.985Z,443.00
2018-12-30T11:19:16.365Z,445.15
2018-12-30T11:20:14.949Z,445.44
2018-12-30T11:21:14.946Z,443.96
2018-12-30T11:22:14.951Z,443.05
2018-12-30T11:23:14.941Z,444.42
2018-12-30T11:24:14.916Z,459.77
2018-12-30T11:25:14.922Z,447.06
2018-12-30T11:26:14.902Z,437.61
2018-12-30T11:27:14.899Z,441.02
2018-12-30T11:28:14.884Z,440.81
2018-12-30T11:29:14.858Z,441.66
2018-12-30T11:30:14.862Z,438.98
2018-12-30T11:31:14.833Z,449.97
2018-12-30T11:32:14.827Z,447.08
2018-12-30T11:33:14.838Z,445.08
2018-12-30T11:34:14.794Z,446.65
2018-12-30T11:35:14.793Z,445.43
2018-12-30T11:36:14.802Z,444.36
2018-12-30T11:37:14.777Z,445.68
2018-12-30T11:38:14.759Z,450.03
2018-12-30T11:39:14.779Z,448.15
2018-12-30T11:40:14.730Z,447.00
2018-12-30T11:41:14.729Z,445.20
2018-12-30T11:42:14.726Z,439.93
2018-12-30T11:43:14.713Z,441.97
2018-12-30T11:44:14.711Z,443.91
2018-12-30T11:45:14.704Z,444.73
2018-12-30T11:46:14.668Z,440.94
2018-12-30T11:47:14.665Z,443.44
2018-12-30T11:48:14.649Z,440.72
2018-12-30T11:49:14.639Z,446.80
2018-12-30T11:50:14.646Z,443.61
2018-12-30T11:51:15.577Z,447.66
2018-12-30T11:52:14.596Z,441.79
2018-12-30T11:53:15.113Z,455.53
2018-12-30T11:54:16.498Z,447.33
2018-12-30T11:55:14.588Z,443.48
2018-12-30T11:56:14.574Z,445.49
2018-12-30T11:57:14.560Z,441.60
2018-12-30T11:58:14.539Z,440.97
2018-12-30T11:59:14.543Z,443.49
2018-12-30T12:00:14.547Z,448.81
2018-12-30T12:01:14.520Z,444.15
2018-12-30T12:02:14.502Z,444.53
2018-12-30T12:03:14.475Z,455.79
2018-12-30T12:04:14.470Z,445.49
2018-12-30T12:05:14.472Z,446.46
2018-12-30T12:06:14.451Z,450.49
2018-12-30T12:07:14.465Z,438.91
2018-12-30T12:08:14.441Z,445.48
2018-12-30T12:09:14.417Z,447.25
2018-12-30T12:10:14.422Z,447.40
2018-12-30T12:11:14.422Z,451.13
2018-12-30T12:12:14.382Z,444.60
2018-12-30T12:13:14.366Z,442.64
2018-12-30T12:14:14.355Z,445.19
2018-12-30T12:15:14.354Z,457.05
2018-12-30T12:16:14.343Z,448.69
2018-12-30T12:17:14.354Z,447.39
2018-12-30T12:18:14.308Z,445.76
2018-12-30T12:19:14.308Z,449.37
2018-12-30T12:20:14.300Z,441.22
2018-12-30T12:21:14.292Z,443.18
2018-12-30T12:22:14.296Z,446.73
2018-12-30T12:23:14.261Z,448.36
2018-12-30T12:24:14.256Z,450.50
2018-12-30T12:25:14.238Z,446.65
2018-12-30T12:26:14.230Z,446.40
2018-12-30T12:27:14.240Z,441.74
2018-12-30T12:28:14.235Z,443.22